Time;durP1;ratioP1;P1;durP2;ratioP2;P2;SDS_P1;SDS_P2;PMS_P1;PMS_P2;Temp;Humidity;BMP_temperature;BMP_pressure;BME280_temperature;BME280_humidity;BME280_pressure;Samples;Min_cycle;Max_cycle;Signal;HPM_P1;HPM_P2
2022/11/13 00:02:04;;;;;;;40.22;17.40;;;;;;;10.11;84.05;101058.28;4842612;29;20102;-96
2022/11/13 00:04:38;;;;;;;38.78;18.88;;;;;;;10.24;83.77;101066.22;4869405;29;20053;-96
2022/11/13 00:07:05;;;;;;;43.63;19.02;;;;;;;10.10;83.81;101046.69;4844749;29;20053;-96
2022/11/13 00:12:02;;;;;;;43.90;18.17;;;;;;;10.23;84.40;101075.34;4929327;28;20056;-96
2022/11/13 00:14:33;;;;;;;43.88;18.38;;;;;;;10.17;83.40;101043.94;4885199;29;20032;-96
2022/11/13 00:17:08;;;;;;;43.13;17.27;;;;;;;10.31;83.43;101079.63;4915396;29;20120;-96
2022/11/13 00:19:34;;;;;;;40.38;18.92;;;;;;;10.11;83.23;101037.56;4896895;29;20036;-96
2022/11/13 00:21:59;;;;;;;37.92;18.48;;;;;;;10.16;83.32;101054.91;4885778;29;20108;-96
2022/11/13 00:24:28;;;;;;;37.55;17.30;;;;;;;10.29;83.36;101071.78;4884954;29;20065;-96
2022/11/13 00:26:55;;;;;;;37.33;16.40;;;;;;;10.23;82.76;101051.13;4885990;29;20044;-96
2022/11/13 00:29:21;;;;;;;43.97;17.45;;;;;;;10.18;82.84;101042.88;4885267;29;20046;-96
2022/11/13 00:31:47;;;;;;;45.63;19.58;;;;;;;10.12;82.88;101047.28;4918296;29;20039;-96
2022/11/13 00:34:19;;;;;;;44.88;18.40;;;;;;;10.03;83.00;101032.50;4902671;29;20574;-96
2022/11/13 00:36:48;;;;;;;38.85;18.35;;;;;;;10.28;83.03;101069.28;4920445;29;20036;-96
2022/11/13 00:39:32;;;;;;;;;;;;;;;;;;;;;
2022/11/13 00:41:58;;;;;;;38.75;18.00;;;;;;;10.29;81.88;101036.78;4936190;29;20087;-96
2022/11/13 00:44:32;;;;;;;37.03;17.60;;;;;;;10.39;82.29;101059.66;4902244;29;20047;-96
2022/11/13 00:46:57;;;;;;;33.83;17.25;;;;;;;10.25;82.21;101040.09;4891090;29;20040;-91
2022/11/13 00:49:23;;;;;;;34.08;16.80;;;;;;;10.30;82.08;101041.13;4891485;29;20031;-91
2022/11/13 00:51:48;;;;;;;35.25;15.73;;;;;;;10.31;81.90;101050.84;4878865;29;20031;-93
2022/11/13 00:54:14;;;;;;;37.75;16.08;;;;;;;10.44;81.56;101049.88;4883081;29;20528;-92
2022/11/13 00:56:39;;;;;;;30.58;16.67;;;;;;;10.42;81.58;101040.38;4884726;29;20048;-92
2022/11/13 00:59:05;;;;;;;33.63;16.77;;;;;;;10.29;82.16;101028.72;4882944;29;20391;-92
2022/11/13 01:01:30;;;;;;;32.78;15.95;;;;;;;10.36;81.57;101035.88;4876545;29;20036;-92
2022/11/13 01:03:56;;;;;;;30.70;15.40;;;;;;;10.44;81.52;101041.78;4889254;29;20023;-92
2022/11/13 01:06:23;;;;;;;32.70;14.68;;;;;;;10.48;81.07;101039.47;4894277;29;20129;-92
2022/11/13 01:08:49;;;;;;;30.60;14.15;;;;;;;10.47;80.57;101029.72;4884925;29;20043;-92
2022/11/13 01:11:19;;;;;;;29.60;14.50;;;;;;;10.45;80.93;101043.41;4897644;29;20056;-91
2022/11/13 01:13:46;;;;;;;34.70;15.32;;;;;;;10.35;82.12;101039.63;4882758;29;20032;-92
2022/11/13 01:16:12;;;;;;;36.00;16.05;;;;;;;10.20;82.22;101018.44;4889329;29;20067;-92
2022/11/13 01:18:38;;;;;;;30.00;14.88;;;;;;;10.35;81.92;101034.22;4904996;29;20059;-94
2022/11/13 01:21:11;;;;;;;27.85;14.00;;;;;;;10.28;81.16;101016.25;4904397;29;20106;-91
2022/11/13 01:23:37;;;;;;;23.67;11.82;;;;;;;10.24;80.47;101008.88;4903964;29;20474;-91
2022/11/13 01:26:15;;;;;;;20.33;10.52;;;;;;;10.35;79.39;101018.88;4899182;29;20035;-92
2022/11/13 01:28:41;;;;;;;15.02;9.48;;;;;;;10.32;77.99;101017.47;4891576;29;20064;-92
2022/11/13 01:31:08;;;;;;;17.80;10.00;;;;;;;10.43;77.72;101025.84;4901765;29;20479;-92
2022/11/13 01:33:33;;;;;;;18.40;10.82;;;;;;;10.42;78.71;101035.81;4871027;29;20066;-92
2022/11/13 01:36:00;;;;;;;19.42;11.07;;;;;;;10.38;79.13;101034.59;4880447;29;20497;-92
2022/11/13 01:38:26;;;;;;;21.80;11.52;;;;;;;10.44;79.61;101038.28;4899499;29;20038;-92
2022/11/13 01:40:52;;;;;;;23.40;12.18;;;;;;;10.32;79.69;101017.47;4898250;29;20032;-92
2022/11/13 01:43:31;;;;;;;24.08;12.25;;;;;;;10.41;79.83;101036.03;4895355;29;20494;-92
2022/11/13 01:45:56;;;;;;;22.92;11.15;;;;;;;10.48;79.70;101034.09;4877628;29;20099;-92
2022/11/13 01:48:21;;;;;;;23.27;12.25;;;;;;;10.28;79.74;101015.44;4922523;29;20027;-92
2022/11/13 01:50:47;;;;;;;25.02;12.85;;;;;;;10.47;79.78;101038.63;4879561;29;20043;-92
2022/11/13 01:53:12;;;;;;;23.65;12.52;;;;;;;10.34;79.99;101013.75;4875100;29;20060;-92
2022/11/13 01:55:38;;;;;;;24.67;12.63;;;;;;;10.26;80.39;101010.28;4881098;29;20028;-92
2022/11/13 01:58:04;;;;;;;25.23;14.05;;;;;;;10.27;80.31;101013.78;4877296;29;20087;-93
2022/11/13 02:00:29;;;;;;;24.83;13.00;;;;;;;10.36;80.68;101025.94;4900232;29;20032;-91
2022/11/13 02:02:54;;;;;;;24.42;13.05;;;;;;;10.36;80.85;101023.25;4879489;29;20035;-91
2022/11/13 02:05:20;;;;;;;26.83;14.32;;;;;;;10.23;80.95;101012.59;4878828;29;20036;-91
2022/11/13 02:07:45;;;;;;;27.08;13.40;;;;;;;10.14;81.16;100990.53;4886044;29;20040;-92
2022/11/13 02:10:11;;;;;;;24.83;11.30;;;;;;;10.36;80.39;101022.44;4877299;29;20522;-92
2022/11/13 02:12:39;;;;;;;23.75;12.75;;;;;;;10.20;81.01;100996.91;4887406;29;20035;-92
2022/11/13 02:15:05;;;;;;;21.92;11.68;;;;;;;10.22;80.80;101008.25;4889384;29;20063;-91
2022/11/13 02:17:39;;;;;;;22.85;12.25;;;;;;;10.31;80.63;101023.09;4879530;29;20062;-92
2022/11/13 02:20:06;;;;;;;19.83;11.40;;;;;;;10.17;80.09;101008.94;4880555;29;20024;-92
2022/11/13 02:22:35;;;;;;;19.80;10.57;;;;;;;10.27;80.12;101025.41;4883676;29;20071;-92
2022/11/13 02:25:01;;;;;;;20.83;10.48;;;;;;;10.06;80.51;101004.31;4880924;29;20550;-92
2022/11/13 02:27:33;;;;;;;16.08;9.35;;;;;;;10.06;80.18;101007.00;4883743;29;20036;-92
2022/11/13 02:30:35;;;;;;;22.40;10.00;;;;;;;10.21;79.82;101025.44;4885510;29;20425;-92
2022/11/13 02:33:01;;;;;;;14.10;8.85;;;;;;;10.24;78.39;101019.63;4901894;29;20040;-92
2022/11/13 02:35:31;;;;;;;14.02;8.73;;;;;;;10.12;77.22;101004.22;4900334;29;20039;-91
2022/11/13 02:37:59;;;;;;;16.80;8.98;;;;;;;10.11;77.30;101005.28;4880565;29;20038;-91
2022/11/13 02:40:24;;;;;;;14.45;8.70;;;;;;;10.07;78.14;101001.41;4882091;29;20083;-91
2022/11/13 02:42:50;;;;;;;16.45;9.05;;;;;;;10.08;78.83;101010.28;4891403;29;20091;-91
2022/11/13 02:45:16;;;;;;;14.52;8.43;;;;;;;9.96;78.64;100996.78;4881558;29;20484;-92
2022/11/13 02:47:41;;;;;;;16.55;8.45;;;;;;;9.95;78.92;101000.50;4884458;29;20035;-91
2022/11/13 02:50:07;;;;;;;17.40;8.90;;;;;;;10.03;78.79;101010.16;4886827;29;20031;-91
2022/11/13 02:52:33;;;;;;;16.60;9.48;;;;;;;10.07;78.96;101014.03;4883562;29;20506;-92
2022/11/13 02:54:58;;;;;;;15.05;8.85;;;;;;;10.10;78.81;101005.50;4880211;29;20099;-92
2022/11/13 02:57:24;;;;;;;17.90;9.90;;;;;;;10.21;78.15;101020.91;4887198;29;20058;-92
2022/11/13 02:59:49;;;;;;;17.15;8.65;;;;;;;10.07;78.32;100997.88;4876716;29;20036;-92
2022/11/13 03:02:15;;;;;;;19.27;8.82;;;;;;;10.10;78.27;101009.00;4898313;29;20123;-91
2022/11/13 03:04:40;;;;;;;13.95;7.30;;;;;;;10.04;77.40;100999.16;4888039;29;20040;-91
2022/11/13 03:07:06;;;;;;;11.55;7.63;;;;;;;10.20;77.02;101021.94;4887020;29;20483;-92
2022/11/13 03:09:31;;;;;;;11.30;7.68;;;;;;;10.08;77.05;101011.09;4873817;29;20494;-92
2022/11/13 03:11:57;;;;;;;11.65;7.75;;;;;;;10.07;77.61;101008.66;4880968;29;20418;-92
2022/11/13 03:14:22;;;;;;;12.50;7.35;;;;;;;10.15;76.89;101007.50;4892039;29;20043;-92
2022/11/13 03:16:48;;;;;;;14.63;7.95;;;;;;;10.12;77.91;101011.47;4887870;29;20043;-92
2022/11/13 03:19:13;;;;;;;17.95;8.80;;;;;;;10.01;78.35;101002.28;4885413;29;20028;-91
2022/11/13 03:21:39;;;;;;;16.77;9.18;;;;;;;9.96;78.66;101004.00;4899521;29;20036;-91
2022/11/13 03:24:04;;;;;;;15.65;9.63;;;;;;;9.93;79.02;101002.59;4874498;29;20146;-92
2022/11/13 03:26:30;;;;;;;14.40;8.93;;;;;;;9.99;78.61;101006.25;4902856;29;20131;-91
2022/11/13 03:28:55;;;;;;;11.93;7.57;;;;;;;10.05;77.58;101025.03;4880157;29;20032;-92
2022/11/13 03:31:21;;;;;;;16.38;8.68;;;;;;;10.14;77.73;101013.94;4882488;29;20032;-92
2022/11/13 03:33:46;;;;;;;15.20;8.73;;;;;;;9.84;79.93;101001.25;4880611;29;20118;-92
2022/11/13 03:36:12;;;;;;;15.13;8.60;;;;;;;9.65;79.94;100998.53;4875569;29;20031;-91
2022/11/13 03:38:37;;;;;;;13.57;7.55;;;;;;;9.77;79.11;100993.22;4896187;29;20056;-91
2022/11/13 03:41:03;;;;;;;12.45;7.50;;;;;;;9.83;79.20;101000.41;4885782;29;20491;-92
2022/11/13 03:43:29;;;;;;;14.85;8.23;;;;;;;9.91;79.31;101010.06;4875254;29;20030;-91
2022/11/13 03:45:54;;;;;;;13.98;7.75;;;;;;;9.91;79.14;101010.88;4880684;29;20090;-92
2022/11/13 03:48:20;;;;;;;13.70;8.50;;;;;;;9.93;78.69;101007.16;4877112;29;20028;-92
2022/11/13 03:50:47;;;;;;;13.52;8.60;;;;;;;10.02;78.70;101020.09;4881069;29;20032;-91
2022/11/13 03:53:13;;;;;;;12.60;7.65;;;;;;;9.93;79.20;101017.91;4877484;29;20032;-92
2022/11/13 03:55:38;;;;;;;14.88;8.10;;;;;;;9.81;80.02;101009.75;4880941;29;20048;-92
2022/11/13 03:58:04;;;;;;;15.73;8.63;;;;;;;9.94;79.76;101036.53;4879580;29;20120;-91
2022/11/13 04:00:30;;;;;;;14.13;7.93;;;;;;;9.99;78.85;101027.78;4879193;29;20067;-91
2022/11/13 04:02:55;;;;;;;15.88;8.43;;;;;;;9.85;78.61;101019.84;4881752;29;20020;-92
2022/11/13 04:05:21;;;;;;;12.57;7.43;;;;;;;9.80;78.31;101008.94;4879538;29;20738;-91
2022/11/13 04:07:46;;;;;;;12.60;7.22;;;;;;;9.82;78.63;101014.91;4880452;29;20414;-92
2022/11/13 04:10:12;;;;;;;14.85;7.72;;;;;;;9.73;78.83;101013.53;4878586;29;20048;-93
2022/11/13 04:12:38;;;;;;;13.93;7.45;;;;;;;9.75;78.52;101008.75;4885737;29;20043;-93
2022/11/13 04:15:04;;;;;;;11.77;7.40;;;;;;;9.77;78.72;101012.06;4875494;29;20032;-93
2022/11/13 04:17:33;;;;;;;20.45;7.68;;;;;;;9.75;79.30;101022.22;4875623;29;20031;-92
2022/11/13 04:19:58;;;;;;;12.07;7.25;;;;;;;9.74;78.65;101020.59;4887296;29;20024;-93
2022/11/13 04:22:24;;;;;;;12.95;7.13;;;;;;;9.75;78.68;101026.78;4889867;29;20088;-93
2022/11/13 04:24:49;;;;;;;11.90;7.70;;;;;;;9.82;77.76;101039.13;4883725;29;20491;-93
2022/11/13 04:27:15;;;;;;;11.82;6.55;;;;;;;9.74;77.73;101027.84;4877168;29;20036;-93
2022/11/13 04:29:40;;;;;;;12.65;6.63;;;;;;;9.80;76.52;101027.75;4871756;29;20039;-92
2022/11/13 04:32:09;;;;;;;11.23;5.80;;;;;;;9.75;75.59;101016.84;4885348;29;20119;-92
2022/11/13 04:34:34;;;;;;;9.50;5.93;;;;;;;9.78;75.76;101008.34;4892980;29;20108;-92
2022/11/13 04:37:00;;;;;;;9.70;6.40;;;;;;;9.79;75.62;101012.66;4879150;29;20036;-92
2022/11/13 04:39:25;;;;;;;10.57;6.15;;;;;;;9.85;75.85;101030.59;4903523;29;20039;-91
2022/11/13 04:44:35;;;;;;;10.82;6.15;;;;;;;9.72;76.65;101011.91;4899711;29;20035;-91
2022/11/13 04:47:00;;;;;;;11.10;6.53;;;;;;;9.80;76.30;101014.31;4869831;29;20071;-92
2022/11/13 04:49:26;;;;;;;12.38;7.75;;;;;;;9.55;77.34;101000.09;4874225;29;20087;-93
2022/11/13 04:51:51;;;;;;;11.35;7.65;;;;;;;9.61;77.79;101005.41;4871104;29;20028;-92
2022/11/13 04:54:16;;;;;;;12.70;6.88;;;;;;;9.70;77.64;101020.19;4877063;29;20104;-92
2022/11/13 04:56:42;;;;;;;12.82;7.45;;;;;;;9.68;77.93;101008.03;4905162;29;20019;-91
2022/11/13 04:59:07;;;;;;;12.82;6.72;;;;;;;9.63;77.77;101016.75;4879001;29;20032;-92
2022/11/13 05:01:34;;;;;;;10.30;6.88;;;;;;;9.59;78.46;100996.75;4873384;29;20032;-92
2022/11/13 05:03:59;;;;;;;15.13;8.13;;;;;;;9.65;78.46;101011.13;4881220;29;20047;-92
2022/11/13 05:06:25;;;;;;;10.77;6.53;;;;;;;9.74;78.24;101006.31;4873405;29;20031;-92
2022/11/13 05:08:50;;;;;;;9.35;6.65;;;;;;;9.81;77.76;101021.31;4872023;29;20092;-93
2022/11/13 05:11:16;;;;;;;10.63;6.35;;;;;;;9.75;77.92;101018.72;4879292;29;20127;-92
2022/11/13 05:13:41;;;;;;;16.02;7.80;;;;;;;9.84;77.56;101026.28;4882280;29;20031;-91
2022/11/13 05:16:09;;;;;;;14.63;8.68;;;;;;;9.79;78.25;101020.72;4871141;29;20043;-91
2022/11/13 05:18:37;;;;;;;16.17;7.95;;;;;;;9.78;78.38;101016.41;4869361;29;20028;-91
2022/11/13 05:21:04;;;;;;;10.23;6.47;;;;;;;9.76;78.67;101023.88;4873102;29;20020;-93
2022/11/13 05:23:29;;;;;;;11.23;6.43;;;;;;;9.65;78.66;101012.00;4881940;29;20028;-92
2022/11/13 05:26:06;;;;;;;12.32;7.05;;;;;;;9.78;78.03;101023.66;4873035;29;20064;-92
2022/11/13 05:28:31;;;;;;;10.80;7.10;;;;;;;9.72;78.23;101011.91;4870714;29;20032;-92
2022/11/13 05:31:08;;;;;;;11.25;7.50;;;;;;;9.76;78.06;101028.44;4887879;29;20439;-92
2022/11/13 05:33:34;;;;;;;10.15;6.25;;;;;;;9.80;77.47;101029.63;4880201;29;20471;-91
2022/11/13 05:36:07;;;;;;;14.20;6.82;;;;;;;9.81;77.32;101025.88;4885901;29;20051;-90
2022/11/13 05:38:32;;;;;;;13.98;7.47;;;;;;;9.70;77.99;101027.44;4878367;29;20154;-92
2022/11/13 05:41:02;;;;;;;11.02;6.70;;;;;;;9.75;78.48;101032.97;4870187;29;20040;-92
2022/11/13 05:43:27;;;;;;;11.88;7.00;;;;;;;9.79;78.20;101039.56;4890779;29;20032;-92
2022/11/13 05:46:13;;;;;;;11.65;6.82;;;;;;;9.77;78.22;101033.56;4870654;29;20039;-90
2022/11/13 05:48:39;;;;;;;14.10;7.10;;;;;;;9.71;78.40;101019.16;4901772;29;20091;-92
2022/11/13 05:51:15;;;;;;;13.25;7.47;;;;;;;9.54;78.78;101010.00;4872336;29;20039;-92
2022/11/13 05:53:41;;;;;;;11.70;6.72;;;;;;;9.50;78.63;101008.81;4892867;29;20055;-91
2022/11/13 05:56:12;;;;;;;11.77;7.35;;;;;;;9.73;78.59;101043.13;4872705;29;20060;-92
2022/11/13 05:58:38;;;;;;;14.18;7.68;;;;;;;9.52;79.19;101017.47;4893817;29;20036;-93
2022/11/13 06:01:09;;;;;;;11.15;7.32;;;;;;;9.55;78.72;101025.13;4880585;29;20043;-92
2022/11/13 06:03:35;;;;;;;16.60;7.30;;;;;;;9.56;78.33;101034.00;4893327;29;20580;-95
2022/11/13 06:06:00;;;;;;;11.02;6.93;;;;;;;9.56;77.47;101021.38;4875405;29;20032;-92
2022/11/13 06:08:26;;;;;;;10.63;6.35;;;;;;;9.58;77.90;101015.78;4895970;29;20035;-93
2022/11/13 06:10:51;;;;;;;11.85;7.13;;;;;;;9.50;78.46;101033.00;4880916;29;20059;-91
2022/11/13 06:13:17;;;;;;;11.93;7.60;;;;;;;9.57;79.05;101041.84;4877218;29;20410;-91
2022/11/13 06:15:42;;;;;;;11.52;6.40;;;;;;;9.66;78.72;101040.50;4873268;29;20415;-91
2022/11/13 06:18:08;;;;;;;9.02;6.40;;;;;;;9.59;78.20;101031.69;4892256;29;20042;-91
2022/11/13 06:20:34;;;;;;;9.23;6.15;;;;;;;9.60;78.56;101046.78;4871552;29;20032;-91
2022/11/13 06:23:00;;;;;;;9.38;6.25;;;;;;;9.44;78.30;101023.97;4869199;29;20028;-92
2022/11/13 06:25:26;;;;;;;8.93;5.78;;;;;;;9.55;76.85;101027.00;4875608;29;20035;-91
2022/11/13 06:27:52;;;;;;;9.77;5.93;;;;;;;9.63;76.44;101040.97;4871280;29;20039;-91
2022/11/13 06:30:18;;;;;;;9.82;6.00;;;;;;;9.53;77.66;101029.06;4881239;29;20042;-92
2022/11/13 06:32:44;;;;;;;10.13;6.38;;;;;;;9.46;77.97;101037.16;4883921;29;20063;-91
2022/11/13 06:35:09;;;;;;;13.13;7.03;;;;;;;9.47;78.43;101055.78;4884699;29;20068;-91
2022/11/13 06:37:35;;;;;;;8.88;5.75;;;;;;;9.25;78.18;101033.00;4891671;29;20070;-91
2022/11/13 06:40:01;;;;;;;12.45;7.05;;;;;;;9.33;78.55;101042.66;4881570;29;20036;-93
2022/11/13 06:42:26;;;;;;;11.98;6.82;;;;;;;9.34;78.77;101036.25;4892674;29;20422;-91
2022/11/13 06:44:52;;;;;;;9.13;6.00;;;;;;;9.32;78.93;101036.47;4868940;29;20083;-91
2022/11/13 06:47:17;;;;;;;11.27;5.85;;;;;;;9.30;77.88;101035.88;4874678;29;20027;-90
2022/11/13 06:49:42;;;;;;;8.80;5.85;;;;;;;9.53;76.89;101040.66;4873643;29;20055;-91
2022/11/13 06:52:08;;;;;;;9.45;5.93;;;;;;;9.41;78.19;101029.78;4874993;29;20032;-91
2022/11/13 06:54:33;;;;;;;9.18;5.85;;;;;;;9.40;78.56;101021.91;4877115;29;20032;-91
2022/11/13 06:56:59;;;;;;;11.75;6.78;;;;;;;9.19;79.55;101012.38;4885778;29;20036;-91
2022/11/13 06:59:24;;;;;;;12.70;6.97;;;;;;;9.30;79.19;101034.00;4870328;29;20040;-91
2022/11/13 07:01:50;;;;;;;10.05;6.43;;;;;;;9.34;78.38;101030.84;4873873;29;20024;-93
2022/11/13 07:04:15;;;;;;;10.90;6.93;;;;;;;9.39;78.87;101028.34;4883255;29;20122;-92
2022/11/13 07:06:41;;;;;;;10.35;6.32;;;;;;;9.29;79.19;101032.34;4874845;29;20035;-92
2022/11/13 07:09:07;;;;;;;13.73;6.97;;;;;;;9.22;79.54;101026.22;4884181;29;20096;-91
2022/11/13 07:11:32;;;;;;;13.00;7.30;;;;;;;9.22;79.10;101017.31;4887120;29;20083;-91
2022/11/13 07:13:57;;;;;;;13.07;6.90;;;;;;;9.36;78.96;101026.09;4887228;29;20031;-92
2022/11/13 07:16:23;;;;;;;16.98;7.10;;;;;;;9.44;77.98;101020.44;4897625;29;20038;-91
2022/11/13 07:18:52;;;;;;;10.65;6.40;;;;;;;9.48;78.25;101021.66;4892196;29;20040;-91
2022/11/13 07:21:17;;;;;;;10.20;6.43;;;;;;;9.54;78.53;101017.25;4875263;29;20096;-92
2022/11/13 07:23:43;;;;;;;12.90;7.30;;;;;;;9.40;78.78;101020.06;4896463;29;20064;-91
2022/11/13 07:26:11;;;;;;;18.20;6.93;;;;;;;9.57;77.88;101023.03;4897588;29;20406;-92
2022/11/13 07:28:37;;;;;;;11.50;7.00;;;;;;;9.60;78.05;101011.00;4882913;29;20099;-91
2022/11/13 07:31:03;;;;;;;11.63;7.05;;;;;;;9.66;77.99;101007.44;4901320;29;20036;-91
2022/11/13 07:33:28;;;;;;;15.38;6.90;;;;;;;9.84;77.35;101003.94;4898090;29;20028;-92
2022/11/13 07:35:55;;;;;;;12.85;6.70;;;;;;;10.18;76.18;101028.59;4892648;29;20451;-92
2022/11/13 07:38:20;;;;;;;12.40;7.68;;;;;;;10.07;76.41;101006.78;4887497;29;20032;-92
2022/11/13 07:40:46;;;;;;;10.65;7.18;;;;;;;10.00;76.54;101002.50;4901200;29;20126;-93
2022/11/13 07:43:11;;;;;;;11.77;8.27;;;;;;;9.88;76.12;101002.44;4875393;29;20020;-91
2022/11/13 07:45:37;;;;;;;15.52;7.57;;;;;;;9.73;76.84;100997.41;4883333;29;20509;-92
2022/11/13 07:48:03;;;;;;;11.07;6.75;;;;;;;9.77;76.91;101003.16;4874771;29;20079;-91
2022/11/13 07:50:32;;;;;;;10.77;7.05;;;;;;;9.85;76.24;101008.25;4871232;29;20036;-92
2022/11/13 07:52:59;;;;;;;12.38;6.97;;;;;;;9.65;76.17;100981.56;4879230;29;20127;-91
2022/11/13 07:55:25;;;;;;;9.60;6.93;;;;;;;9.95;75.34;100991.59;4889833;29;20625;-91
2022/11/13 07:57:50;;;;;;;11.70;7.30;;;;;;;10.11;75.29;100983.75;4895253;29;20081;-90
2022/11/13 08:00:16;;;;;;;11.65;6.47;;;;;;;10.21;74.78;100996.69;4903192;29;20032;-91
2022/11/13 08:02:42;;;;;;;11.10;7.00;;;;;;;10.37;74.22;101002.53;4880607;29;20514;-91
2022/11/13 08:05:07;;;;;;;9.57;6.47;;;;;;;10.32;74.14;100982.47;4883156;29;20031;-91
2022/11/13 08:07:33;;;;;;;10.50;6.35;;;;;;;10.31;74.92;100983.53;4879942;29;20476;-92
2022/11/13 08:09:58;;;;;;;9.85;6.30;;;;;;;10.35;74.78;100988.47;4870028;29;20053;-93
2022/11/13 08:12:24;;;;;;;8.00;5.18;;;;;;;10.45;73.55;100984.16;4888242;29;20498;-93
2022/11/13 08:14:50;;;;;;;7.60;5.40;;;;;;;10.48;73.35;100991.81;4894379;29;20032;-93
2022/11/13 08:17:16;;;;;;;8.93;5.78;;;;;;;10.46;73.29;100988.53;4870299;29;20036;-93
2022/11/13 08:19:42;;;;;;;8.02;5.70;;;;;;;10.38;73.94;100985.31;4898211;29;20119;-91
2022/11/13 08:22:08;;;;;;;9.70;5.80;;;;;;;10.19;74.70;100987.16;4900727;29;20028;-92
2022/11/13 08:24:34;;;;;;;13.07;6.88;;;;;;;10.07;75.43;100987.13;4895219;29;20145;-93
2022/11/13 08:26:59;;;;;;;16.83;7.15;;;;;;;10.10;75.95;100992.03;4886399;29;20410;-93
2022/11/13 08:29:25;;;;;;;10.93;7.38;;;;;;;9.95;76.67;100983.53;4877949;29;20090;-93
2022/11/13 08:31:50;;;;;;;9.10;6.97;;;;;;;9.82;76.38;100971.88;4890531;29;20036;-92
2022/11/13 08:34:16;;;;;;;11.45;7.25;;;;;;;9.94;76.12;100969.28;4893772;29;20043;-93
2022/11/13 08:36:43;;;;;;;12.98;7.97;;;;;;;10.09;75.15;100971.56;4902734;29;20111;-92
2022/11/13 08:39:10;;;;;;;10.35;7.30;;;;;;;10.37;75.03;100973.72;4883313;29;20114;-92
2022/11/13 08:41:35;;;;;;;10.38;6.95;;;;;;;10.50;74.99;100991.59;4916661;29;20055;-94
2022/11/13 08:44:02;;;;;;;13.40;7.40;;;;;;;10.51;74.58;100983.25;4899119;29;20028;-92
2022/11/13 08:46:29;;;;;;;13.50;7.88;;;;;;;10.28;75.57;100986.63;4900251;29;20491;-92
2022/11/13 08:48:56;;;;;;;12.45;7.72;;;;;;;10.39;75.05;100981.56;4881351;29;20121;-94
2022/11/13 08:51:21;;;;;;;14.95;7.50;;;;;;;10.42;74.38;100978.44;4885569;29;20047;-93
2022/11/13 08:53:51;;;;;;;8.80;6.72;;;;;;;10.68;73.03;100980.75;4887407;29;20036;-93
2022/11/13 08:56:19;;;;;;;12.90;7.50;;;;;;;10.74;72.80;100976.31;4876968;29;20103;-93
2022/11/13 08:58:45;;;;;;;9.23;6.43;;;;;;;10.72;72.66;100973.03;4885394;29;20036;-94
2022/11/13 09:01:11;;;;;;;10.05;6.03;;;;;;;10.78;72.98;100982.06;4888562;29;20107;-93
2022/11/13 09:03:36;;;;;;;9.35;6.60;;;;;;;10.60;73.95;100972.97;4890456;29;20035;-94
2022/11/13 09:06:07;;;;;;;10.68;6.70;;;;;;;10.50;74.15;100948.50;4889654;29;20494;-94
2022/11/13 09:08:34;;;;;;;9.43;6.70;;;;;;;10.72;73.40;100967.63;4907132;29;20032;-93
2022/11/13 09:11:04;;;;;;;8.10;6.18;;;;;;;10.62;73.16;100945.81;4895437;29;20056;-93
2022/11/13 09:13:30;;;;;;;9.07;5.85;;;;;;;10.76;72.93;100943.75;4878425;29;20051;-92
2022/11/13 09:15:58;;;;;;;10.43;5.93;;;;;;;10.76;72.24;100941.06;4882533;29;20036;-93
2022/11/13 09:18:25;;;;;;;10.05;6.63;;;;;;;10.89;72.48;100939.00;4910013;29;20028;-92
2022/11/13 09:20:50;;;;;;;9.57;6.18;;;;;;;10.96;72.01;100929.94;4894459;29;20406;-91
2022/11/13 09:23:16;;;;;;;9.68;6.03;;;;;;;10.97;73.17;100935.13;4883351;29;20020;-92
2022/11/13 09:25:41;;;;;;;8.88;5.95;;;;;;;11.17;72.38;100939.38;4878523;29;20044;-93
2022/11/13 09:28:08;;;;;;;11.30;7.05;;;;;;;11.17;73.02;100921.31;4878606;29;20024;-91
2022/11/13 09:30:36;;;;;;;9.52;6.80;;;;;;;11.29;72.95;100921.31;4874498;29;20039;-92
2022/11/13 09:33:01;;;;;;;9.05;6.43;;;;;;;11.24;73.11;100913.09;4878728;29;20036;-92
2022/11/13 09:35:34;;;;;;;13.85;7.50;;;;;;;11.33;73.32;100920.63;4876318;29;20100;-93
2022/11/13 09:38:04;;;;;;;11.65;7.28;;;;;;;11.32;73.20;100912.75;4893852;29;20114;-93
2022/11/13 09:40:39;;;;;;;10.43;6.40;;;;;;;11.41;72.75;100907.81;4893557;29;20182;-92
2022/11/13 09:43:05;;;;;;;10.05;8.23;;;;;;;11.41;72.19;100903.22;4914333;29;20064;-93
2022/11/13 09:45:32;;;;;;;9.20;6.22;;;;;;;11.39;71.98;100891.88;4879318;29;20042;-93
2022/11/13 09:48:26;;;;;;;10.30;6.22;;;;;;;11.55;71.83;100905.69;4885959;29;20032;-92
2022/11/13 09:50:53;;;;;;;9.02;6.18;;;;;;;11.50;70.52;100887.53;4901400;29;20482;-93
2022/11/13 09:53:24;;;;;;;8.80;6.03;;;;;;;11.52;71.66;100883.53;4899984;29;20024;-93
2022/11/13 09:56:14;;;;;;;14.30;6.65;;;;;;;11.62;71.36;100880.25;4895461;29;20063;-94
2022/11/13 09:59:15;;;;;;;8.82;6.03;;;;;;;11.53;71.29;100865.47;4928080;29;20623;-93
2022/11/13 10:01:56;;;;;;;9.00;6.28;;;;;;;11.76;71.13;100877.25;4894712;29;20064;-93
2022/11/13 10:04:34;;;;;;;11.85;7.18;;;;;;;11.68;71.70;100856.88;4887223;29;20024;-96
2022/11/13 10:07:39;;;;;;;9.23;6.88;;;;;;;11.70;71.65;100850.19;4905975;29;20138;-95
2022/11/13 10:10:41;;;;;;;8.82;5.97;;;;;;;11.79;72.08;100864.13;4887853;29;20040;-95
2022/11/13 10:13:10;;;;;;;9.82;6.78;;;;;;;11.65;72.21;100839.28;4896096;29;20048;-94
2022/11/13 10:15:37;;;;;;;10.15;7.10;;;;;;;11.77;72.30;100843.84;4872658;29;20487;-95
2022/11/13 10:18:12;;;;;;;9.98;7.22;;;;;;;11.85;72.12;100843.44;4856866;29;20028;-92
2022/11/13 10:20:53;;;;;;;10.73;6.65;;;;;;;12.00;71.76;100859.16;4854969;29;20119;-92
2022/11/13 10:23:23;;;;;;;9.35;6.95;;;;;;;12.04;71.40;100852.22;4892047;29;20024;-93
2022/11/13 10:25:51;;;;;;;9.45;6.78;;;;;;;11.88;71.33;100835.72;4886650;29;20047;-92
2022/11/13 10:28:23;;;;;;;9.02;6.43;;;;;;;11.91;71.52;100827.13;4877955;29;20028;-95
2022/11/13 10:31:35;;;;;;;9.73;6.80;;;;;;;11.96;71.83;100839.09;4876918;29;20032;-92
2022/11/13 10:34:01;;;;;;;9.77;6.63;;;;;;;12.01;71.33;100826.50;4892656;29;20060;-93
2022/11/13 10:36:56;;;;;;;11.35;6.95;;;;;;;11.99;70.99;100811.59;4858866;29;20490;-93
2022/11/13 10:39:23;;;;;;;11.35;6.75;;;;;;;12.06;70.66;100809.59;4872587;29;20530;-93
2022/11/13 10:41:51;;;;;;;10.50;5.97;;;;;;;12.15;70.26;100807.31;4858825;29;20145;-92
2022/11/13 10:44:28;;;;;;;9.43;6.35;;;;;;;12.23;70.15;100798.81;4852839;29;20060;-92
2022/11/13 10:47:24;;;;;;;9.45;6.28;;;;;;;12.26;70.27;100779.41;4849410;29;20041;-93
2022/11/13 10:49:50;;;;;;;8.98;6.00;;;;;;;12.30;69.52;100781.34;4856722;29;20059;-93
2022/11/13 10:52:23;;;;;;;9.95;6.13;;;;;;;12.33;70.38;100782.78;4873824;29;20044;-93
2022/11/13 10:54:49;;;;;;;8.02;5.95;;;;;;;12.37;70.50;100783.94;4860617;29;20437;-92
2022/11/13 10:57:29;;;;;;;8.75;6.28;;;;;;;12.41;70.29;100774.25;4848776;29;20077;-92
2022/11/13 10:59:55;;;;;;;7.97;5.68;;;;;;;12.45;69.79;100780.81;4877351;29;20045;-93
2022/11/13 11:02:22;;;;;;;8.50;5.90;;;;;;;12.39;70.05;100756.66;4863606;29;20036;-92
2022/11/13 11:04:48;;;;;;;11.32;8.30;;;;;;;12.56;70.17;100775.56;4869150;29;20055;-92
2022/11/13 11:07:21;;;;;;;13.70;9.57;;;;;;;12.51;70.57;100773.59;4853467;29;20483;-92
2022/11/13 11:09:47;;;;;;;14.05;9.20;;;;;;;12.49;70.17;100763.06;4868957;29;20036;-92
2022/11/13 11:12:17;;;;;;;14.32;10.27;;;;;;;12.51;70.02;100762.78;4900699;29;20036;-92
2022/11/13 11:14:58;;;;;;;14.88;9.82;;;;;;;12.48;70.42;100774.91;4878077;29;20071;-92
2022/11/13 11:17:34;;;;;;;16.60;11.32;;;;;;;12.28;71.14;100758.38;4912967;29;20126;-92
2022/11/13 11:20:22;;;;;;;17.25;11.23;;;;;;;12.20;71.98;100767.72;4889382;29;20040;-93
2022/11/13 11:23:21;;;;;;;18.15;11.40;;;;;;;12.06;72.51;100759.09;4906731;29;20059;-92
2022/11/13 11:25:53;;;;;;;16.50;11.25;;;;;;;11.98;72.89;100758.69;4892191;29;20040;-92
2022/11/13 11:28:24;;;;;;;;;;;;;;;12.01;73.01;100775.19;4885121;29;20415;-90
2022/11/13 11:30:52;;;;;;;16.63;11.27;;;;;;;11.98;73.39;100774.88;4884002;29;19968;-92
2022/11/13 11:33:34;;;;;;;19.08;12.02;;;;;;;11.86;73.62;100766.81;4881207;29;20079;-92